Time;durP1;ratioP1;P1;durP2;ratioP2;P2;SDS_P1;SDS_P2;PMS_P1;PMS_P2;Temp;Humidity;BMP_temperature;BMP_pressure;BME280_temperature;BME280_humidity;BME280_pressure;Samples;Min_cycle;Max_cycle;Signal;HPM_P1;HPM_P2
2022/03/06 00:01:41;;;;;;;30.40;11.13;;;;;;;;;;4964210;28;20485;-70
2022/03/06 00:04:08;;;;;;;37.63;12.52;;;;;;;;;;4966016;28;20134;-70
2022/03/06 00:06:34;;;;;;;35.00;11.50;;;;;;;;;;4967990;28;20089;-70
2022/03/06 00:09:01;;;;;;;42.00;11.23;;;;;;;;;;4964333;28;20105;-71
2022/03/06 00:11:27;;;;;;;47.57;11.97;;;;;;;;;;4963889;28;20113;-70
2022/03/06 00:13:54;;;;;;;34.03;11.57;;;;;;;;;;4965503;28;20121;-70
2022/03/06 00:16:20;;;;;;;32.03;11.80;;;;;;;;;;4966850;28;20082;-70
2022/03/06 00:18:53;;;;;;;33.88;12.05;;;;;;;;;;4961276;28;20070;-70
2022/03/06 00:21:19;;;;;;;38.30;12.27;;;;;;;;;;4960948;28;20141;-70
2022/03/06 00:23:46;;;;;;;48.85;12.32;;;;;;;;;;4963913;28;20047;-70
2022/03/06 00:26:14;;;;;;;36.28;11.10;;;;;;;;;;4946469;28;20182;-70
2022/03/06 00:28:40;;;;;;;34.63;10.88;;;;;;;;;;4962169;28;20138;-70
2022/03/06 00:31:07;;;;;;;33.22;12.10;;;;;;;;;;4961897;28;20108;-69
2022/03/06 00:33:34;;;;;;;36.15;10.93;;;;;;;;;;4963815;28;20141;-70
2022/03/06 00:36:01;;;;;;;38.63;11.25;;;;;;;;;;4964648;28;20054;-70
2022/03/06 00:38:28;;;;;;;33.70;11.27;;;;;;;;;;4965344;28;20126;-69
2022/03/06 00:41:01;;;;;;;25.40;10.60;;;;;;;;;;4967288;28;20696;-70
2022/03/06 00:43:27;;;;;;;38.17;10.77;;;;;;;;;;4963095;28;20143;-70
2022/03/06 00:45:54;;;;;;;37.95;10.93;;;;;;;;;;4963964;28;20071;-70
2022/03/06 00:48:21;;;;;;;35.03;10.23;;;;;;;;;;4963743;28;20153;-70
2022/03/06 00:50:47;;;;;;;33.08;10.77;;;;;;;;;;4962044;28;20302;-70
2022/03/06 00:53:14;;;;;;;35.93;10.40;;;;;;;;;;4962114;28;20078;-70
2022/03/06 00:55:47;;;;;;;47.33;11.40;;;;;;;;;;4961373;28;20356;-70
2022/03/06 00:58:13;;;;;;;42.50;10.50;;;;;;;;;;4963128;28;20215;-70
2022/03/06 01:00:41;;;;;;;38.25;11.35;;;;;;;;;;4961248;28;20133;-70
2022/03/06 01:03:13;;;;;;;40.45;11.13;;;;;;;;;;4964584;28;20061;-70
2022/03/06 01:05:40;;;;;;;34.28;11.98;;;;;;;;;;4964168;28;20061;-70
2022/03/06 01:08:07;;;;;;;46.93;10.87;;;;;;;;;;4961758;28;20085;-70
2022/03/06 01:10:41;;;;;;;36.72;10.77;;;;;;;;;;4960434;28;20338;-70
2022/03/06 01:13:08;;;;;;;32.42;10.60;;;;;;;;;;4963337;28;20134;-70
2022/03/06 01:15:34;;;;;;;28.98;8.10;;;;;;;;;;4962086;28;20482;-70
2022/03/06 01:18:02;;;;;;;26.88;8.02;;;;;;;;;;4964190;28;20082;-70
2022/03/06 01:20:28;;;;;;;35.97;10.30;;;;;;;;;;4959669;28;20050;-70
2022/03/06 01:22:55;;;;;;;37.22;11.70;;;;;;;;;;4959041;28;20051;-70
2022/03/06 01:25:28;;;;;;;31.48;10.38;;;;;;;;;;4959476;28;20081;-70
2022/03/06 01:27:55;;;;;;;51.47;12.27;;;;;;;;;;4958848;28;20094;-70
2022/03/06 01:30:22;;;;;;;29.25;8.60;;;;;;;;;;4966520;28;20344;-70
2022/03/06 01:32:49;;;;;;;36.17;11.75;;;;;;;;;;4964368;28;20043;-70
2022/03/06 01:35:16;;;;;;;33.60;8.48;;;;;;;;;;4962317;28;20054;-70
2022/03/06 01:37:42;;;;;;;39.35;10.90;;;;;;;;;;4964925;28;20105;-70
2022/03/06 01:40:13;;;;;;;40.15;11.07;;;;;;;;;;4964060;28;20081;-69
2022/03/06 01:42:41;;;;;;;32.85;11.00;;;;;;;;;;4963515;28;20077;-70
2022/03/06 01:45:11;;;;;;;33.15;10.90;;;;;;;;;;4959117;28;20214;-69
2022/03/06 01:47:42;;;;;;;51.40;12.35;;;;;;;;;;4961398;28;20102;-69
2022/03/06 01:50:13;;;;;;;46.50;12.00;;;;;;;;;;4943541;28;20071;-69
2022/03/06 01:52:40;;;;;;;41.47;11.18;;;;;;;;;;4961716;28;20054;-69
2022/03/06 01:55:06;;;;;;;33.57;10.00;;;;;;;;;;4960574;28;20146;-69
2022/03/06 01:57:33;;;;;;;44.83;12.50;;;;;;;;;;4961918;28;20862;-69
2022/03/06 02:00:08;;;;;;;47.65;13.05;;;;;;;;;;4959848;28;20078;-69
2022/03/06 02:02:35;;;;;;;41.72;12.05;;;;;;;;;;4958881;28;20133;-69
2022/03/06 02:05:01;;;;;;;40.20;13.45;;;;;;;;;;4963627;28;20054;-69
2022/03/06 02:07:31;;;;;;;45.30;13.27;;;;;;;;;;4962448;28;20098;-69
2022/03/06 02:09:57;;;;;;;47.35;9.30;;;;;;;;;;4962245;28;20878;-69
2022/03/06 02:12:24;;;;;;;46.45;13.30;;;;;;;;;;4963890;28;20137;-70
2022/03/06 02:14:54;;;;;;;39.60;11.98;;;;;;;;;;4962066;28;20142;-69
2022/03/06 02:17:20;;;;;;;;;;;;;;;;;;4962227;28;20145;-69
2022/03/06 02:19:50;;;;;;;40.03;11.25;;;;;;;;;;4963037;28;19983;-70
2022/03/06 02:22:16;;;;;;;38.63;12.10;;;;;;;;;;4962691;28;20210;-69
2022/03/06 02:24:43;;;;;;;57.33;14.52;;;;;;;;;;4962883;28;20089;-69
2022/03/06 02:27:09;;;;;;;50.65;13.52;;;;;;;;;;4961383;28;20500;-69
2022/03/06 02:29:42;;;;;;;44.00;13.45;;;;;;;;;;4963861;28;20684;-69
2022/03/06 02:32:09;;;;;;;58.00;14.60;;;;;;;;;;4968532;28;20547;-70
2022/03/06 02:34:39;;;;;;;46.75;15.05;;;;;;;;;;4966822;28;20386;-70
2022/03/06 02:37:07;;;;;;;55.47;14.25;;;;;;;;;;4962616;28;20086;-69
2022/03/06 02:39:33;;;;;;;55.05;13.77;;;;;;;;;;4963411;28;20133;-70
2022/03/06 02:42:01;;;;;;;81.00;15.65;;;;;;;;;;4960867;28;20154;-70
2022/03/06 02:44:28;;;;;;;44.72;12.50;;;;;;;;;;4962133;28;20133;-70
2022/03/06 02:46:55;;;;;;;56.75;14.38;;;;;;;;;;4960107;28;20442;-69
2022/03/06 02:49:22;;;;;;;35.92;10.30;;;;;;;;;;4964325;28;20188;-70
2022/03/06 02:51:52;;;;;;;55.30;14.43;;;;;;;;;;4962149;28;20170;-69
2022/03/06 02:54:20;;;;;;;46.17;10.23;;;;;;;;;;4958581;28;20988;-73
2022/03/06 02:56:47;;;;;;;50.75;13.98;;;;;;;;;;4961337;28;20689;-69
2022/03/06 02:59:13;;;;;;;39.15;10.90;;;;;;;;;;4966368;28;20133;-70
2022/03/06 03:01:41;;;;;;;52.78;11.07;;;;;;;;;;4967014;28;20057;-69
2022/03/06 03:04:08;;;;;;;48.88;12.68;;;;;;;;;;4968407;28;20054;-70
2022/03/06 03:06:41;;;;;;;45.75;12.50;;;;;;;;;;4965144;28;20142;-70
2022/03/06 03:09:08;;;;;;;55.50;12.48;;;;;;;;;;4970275;28;20078;-69
2022/03/06 03:11:37;;;;;;;49.67;13.70;;;;;;;;;;4968090;28;20056;-70
2022/03/06 03:14:03;;;;;;;49.20;12.65;;;;;;;;;;4969051;28;20554;-70
2022/03/06 03:16:30;;;;;;;68.60;13.75;;;;;;;;;;4968572;28;20471;-70
2022/03/06 03:18:56;;;;;;;46.60;13.50;;;;;;;;;;4970206;28;20047;-70
2022/03/06 03:21:23;;;;;;;52.40;12.23;;;;;;;;;;4970584;28;20400;-70
2022/03/06 03:23:50;;;;;;;46.45;11.35;;;;;;;;;;4969327;28;20078;-70
2022/03/06 03:26:16;;;;;;;31.10;8.60;;;;;;;;;;4970658;28;20038;-70
2022/03/06 03:28:49;;;;;;;52.20;11.77;;;;;;;;;;4966852;28;20397;-72
2022/03/06 03:31:15;;;;;;;47.95;12.20;;;;;;;;;;4968350;28;20310;-72
2022/03/06 03:33:42;;;;;;;36.80;10.75;;;;;;;;;;4970538;28;20055;-72
2022/03/06 03:36:08;;;;;;;60.90;12.63;;;;;;;;;;4966174;28;20136;-73
2022/03/06 03:38:35;;;;;;;45.20;10.32;;;;;;;;;;4966726;28;20050;-72
2022/03/06 03:41:02;;;;;;;;;;;;;;;;;;4967551;28;20094;-73
2022/03/06 03:43:29;;;;;;;42.42;9.38;;;;;;;;;;4966182;28;20462;-72
2022/03/06 03:45:57;;;;;;;27.83;9.13;;;;;;;;;;4967027;28;20138;-73
2022/03/06 03:48:27;;;;;;;33.30;10.68;;;;;;;;;;4968675;28;20042;-73
2022/03/06 03:50:57;;;;;;;34.97;10.10;;;;;;;;;;4967524;28;20138;-73
2022/03/06 03:53:24;;;;;;;26.90;8.60;;;;;;;;;;4967853;28;20100;-73
2022/03/06 03:55:51;;;;;;;37.40;8.27;;;;;;;;;;4967540;28;20568;-73
2022/03/06 03:58:17;;;;;;;;;;;;;;;;;;4972034;28;20142;-73
2022/03/06 04:00:45;;;;;;;38.42;9.98;;;;;;;;;;4968612;28;20364;-72
2022/03/06 04:03:13;;;;;;;40.50;11.68;;;;;;;;;;4969521;28;20050;-72
2022/03/06 04:05:41;;;;;;;40.47;11.13;;;;;;;;;;4969520;28;20051;-72
2022/03/06 04:08:07;;;;;;;52.13;11.70;;;;;;;;;;4968002;28;20317;-72
2022/03/06 04:10:33;;;;;;;41.13;10.80;;;;;;;;;;4962619;28;20090;-72
2022/03/06 04:13:00;;;;;;;28.58;7.78;;;;;;;;;;4966466;28;20302;-72
2022/03/06 04:15:26;;;;;;;37.70;10.05;;;;;;;;;;4965416;28;20189;-72
2022/03/06 04:17:53;;;;;;;35.08;9.00;;;;;;;;;;4952491;28;20051;-72
2022/03/06 04:20:20;;;;;;;29.95;8.65;;;;;;;;;;4965145;28;20491;-73
2022/03/06 04:22:47;;;;;;;35.90;8.10;;;;;;;;;;4967132;28;20137;-73
2022/03/06 04:25:13;;;;;;;21.00;5.93;;;;;;;;;;4966851;28;20042;-72
2022/03/06 04:27:40;;;;;;;25.05;7.47;;;;;;;;;;4966321;28;20082;-73
2022/03/06 04:30:06;;;;;;;28.45;7.60;;;;;;;;;;4965842;28;20089;-72
2022/03/06 04:32:33;;;;;;;29.92;6.32;;;;;;;;;;4962890;28;20521;-73
2022/03/06 04:34:59;;;;;;;16.23;5.75;;;;;;;;;;4964068;28;20058;-72
2022/03/06 04:37:26;;;;;;;25.48;7.97;;;;;;;;;;4962644;28;20137;-73
2022/03/06 04:39:52;;;;;;;35.35;8.25;;;;;;;;;;4967773;28;20057;-72
2022/03/06 04:42:21;;;;;;;33.42;8.70;;;;;;;;;;4966795;28;20133;-73
2022/03/06 04:44:47;;;;;;;21.23;5.60;;;;;;;;;;4962078;28;20566;-73
2022/03/06 04:47:14;;;;;;;21.00;5.90;;;;;;;;;;4963982;28;20051;-73
2022/03/06 04:49:40;;;;;;;23.15;6.30;;;;;;;;;;4968957;28;20605;-73
2022/03/06 04:52:07;;;;;;;44.78;7.70;;;;;;;;;;4962260;28;20773;-73
2022/03/06 04:54:33;;;;;;;130.20;13.68;;;;;;;;;;4965932;28;20073;-73
2022/03/06 04:57:06;;;;;;;149.07;12.23;;;;;;;;;;4966320;28;20138;-73
2022/03/06 04:59:33;;;;;;;213.10;16.02;;;;;;;;;;4964902;28;20509;-73
2022/03/06 05:01:59;;;;;;;293.40;15.57;;;;;;;;;;4961410;28;20074;-73
2022/03/06 05:04:26;;;;;;;231.48;14.98;;;;;;;;;;4963922;28;20093;-73
2022/03/06 05:06:52;;;;;;;205.90;13.70;;;;;;;;;;4965364;28;20077;-73
2022/03/06 05:09:19;;;;;;;115.68;10.38;;;;;;;;;;4964304;28;20822;-73
2022/03/06 05:11:48;;;;;;;91.70;10.88;;;;;;;;;;4963405;28;20054;-73
2022/03/06 05:14:14;;;;;;;69.43;9.60;;;;;;;;;;4971772;28;20158;-73
2022/03/06 05:16:41;;;;;;;74.57;8.80;;;;;;;;;;4967604;28;20442;-73
2022/03/06 05:19:14;;;;;;;87.63;10.50;;;;;;;;;;4963259;28;20153;-73
2022/03/06 05:21:41;;;;;;;80.37;8.07;;;;;;;;;;4967866;28;20099;-72
2022/03/06 05:24:07;;;;;;;62.47;10.35;;;;;;;;;;4963775;28;20360;-73
2022/03/06 05:26:34;;;;;;;56.35;10.30;;;;;;;;;;4966126;28;20094;-73
2022/03/06 05:29:00;;;;;;;57.67;9.40;;;;;;;;;;4968398;28;20071;-73
2022/03/06 05:31:27;;;;;;;48.47;9.98;;;;;;;;;;4962377;28;20136;-73
2022/03/06 05:33:53;;;;;;;52.38;7.88;;;;;;;;;;4965877;28;20081;-73
2022/03/06 05:36:20;;;;;;;41.83;8.90;;;;;;;;;;4964216;28;20571;-73
2022/03/06 05:38:46;;;;;;;66.37;6.67;;;;;;;;;;4965430;28;20050;-73
2022/03/06 05:41:19;;;;;;;24.95;7.50;;;;;;;;;;4960291;28;20177;-73
2022/03/06 05:43:46;;;;;;;45.40;7.65;;;;;;;;;;4957969;28;20112;-73
2022/03/06 05:46:12;;;;;;;22.17;6.97;;;;;;;;;;4961918;28;20143;-73
2022/03/06 05:48:39;;;;;;;17.83;6.07;;;;;;;;;;4960439;28;20096;-73
2022/03/06 05:51:05;;;;;;;33.47;7.68;;;;;;;;;;4960529;28;20050;-72
2022/03/06 05:53:33;;;;;;;30.48;8.25;;;;;;;;;;4958190;28;20154;-73
2022/03/06 05:55:59;;;;;;;;;;;;;;;;;;4961556;28;20074;-73
2022/03/06 05:58:26;;;;;;;21.90;6.47;;;;;;;;;;4960518;28;19961;-73
2022/03/06 06:00:52;;;;;;;11.90;5.00;;;;;;;;;;4959593;28;20142;-73
2022/03/06 06:03:19;;;;;;;19.92;6.97;;;;;;;;;;4960582;28;20047;-73
2022/03/06 06:05:47;;;;;;;29.85;8.00;;;;;;;;;;4961131;28;20100;-73
2022/03/06 06:08:13;;;;;;;55.17;7.75;;;;;;;;;;4960204;28;20145;-73
2022/03/06 06:10:39;;;;;;;171.07;10.90;;;;;;;;;;4961903;28;20079;-73
2022/03/06 06:13:15;;;;;;;117.07;10.30;;;;;;;;;;4959537;28;20505;-73
2022/03/06 06:15:43;;;;;;;142.63;10.98;;;;;;;;;;4958732;28;20089;-73
2022/03/06 06:18:12;;;;;;;71.10;9.77;;;;;;;;;;4961082;28;20109;-73
2022/03/06 06:20:40;;;;;;;31.10;8.35;;;;;;;;;;4959268;28;20142;-74
2022/03/06 06:23:06;;;;;;;81.38;9.43;;;;;;;;;;4957302;28;20046;-73
2022/03/06 06:25:33;;;;;;;80.47;7.43;;;;;;;;;;4958498;28;20555;-73
2022/03/06 06:27:59;;;;;;;69.17;9.47;;;;;;;;;;4962081;28;20085;-73
2022/03/06 06:30:26;;;;;;;66.35;6.85;;;;;;;;;;4963945;28;21663;-73
2022/03/06 06:32:52;;;;;;;124.68;9.75;;;;;;;;;;4961063;28;20133;-73
2022/03/06 06:35:20;;;;;;;150.35;10.23;;;;;;;;;;4960046;28;20101;-73
2022/03/06 06:37:46;;;;;;;97.03;8.25;;;;;;;;;;4963257;28;20145;-73
2022/03/06 06:40:13;;;;;;;83.23;8.27;;;;;;;;;;4961758;28;20130;-73
2022/03/06 06:42:39;;;;;;;45.23;8.73;;;;;;;;;;4961274;28;20588;-73
2022/03/06 06:45:06;;;;;;;86.13;9.43;;;;;;;;;;4957649;28;20393;-73
2022/03/06 06:47:32;;;;;;;61.23;5.33;;;;;;;;;;4957094;28;20377;-73
2022/03/06 06:49:59;;;;;;;37.97;8.65;;;;;;;;;;4955046;28;20337;-73
2022/03/06 06:52:25;;;;;;;40.13;8.82;;;;;;;;;;4956209;28;20078;-73
2022/03/06 06:54:52;;;;;;;29.02;8.27;;;;;;;;;;4957821;28;20145;-73
2022/03/06 06:57:19;;;;;;;42.53;9.63;;;;;;;;;;4959647;28;20047;-73
2022/03/06 06:59:45;;;;;;;42.20;8.15;;;;;;;;;;4955337;28;20078;-73
2022/03/06 07:02:12;;;;;;;32.73;6.60;;;;;;;;;;4959891;28;20067;-73
2022/03/06 07:04:39;;;;;;;33.50;8.15;;;;;;;;;;4960370;28;20313;-73
2022/03/06 07:07:05;;;;;;;43.57;8.13;;;;;;;;;;4958710;28;20133;-73
2022/03/06 07:09:32;;;;;;;26.10;7.57;;;;;;;;;;4957992;28;20220;-72
2022/03/06 07:11:59;;;;;;;29.75;7.75;;;;;;;;;;4958316;28;20146;-73
2022/03/06 07:14:25;;;;;;;18.10;5.97;;;;;;;;;;4959847;28;20078;-73
2022/03/06 07:16:52;;;;;;;16.58;6.65;;;;;;;;;;4954353;28;20069;-73
2022/03/06 07:19:18;;;;;;;21.43;7.57;;;;;;;;;;4960178;28;20070;-74
2022/03/06 07:21:45;;;;;;;30.87;7.77;;;;;;;;;;4959679;28;20606;-74
2022/03/06 07:24:11;;;;;;;20.98;7.20;;;;;;;;;;4956286;28;20389;-75
2022/03/06 07:26:38;;;;;;;29.67;8.27;;;;;;;;;;4959213;28;20074;-74
2022/03/06 07:29:04;;;;;;;29.92;7.38;;;;;;;;;;4957509;28;20382;-74
2022/03/06 07:31:31;;;;;;;24.17;8.32;;;;;;;;;;4955466;28;20499;-74
2022/03/06 07:34:04;;;;;;;31.85;9.15;;;;;;;;;;4954643;28;20143;-74
2022/03/06 07:36:31;;;;;;;23.42;7.45;;;;;;;;;;4957366;28;20138;-74
2022/03/06 07:38:57;;;;;;;21.15;7.93;;;;;;;;;;4957054;28;20054;-74
2022/03/06 07:41:25;;;;;;;21.13;7.72;;;;;;;;;;4943339;28;20138;-74
2022/03/06 07:43:51;;;;;;;23.07;8.70;;;;;;;;;;4938937;28;20368;-74
2022/03/06 07:46:18;;;;;;;19.65;8.40;;;;;;;;;;4959563;28;20054;-74
2022/03/06 07:48:44;;;;;;;17.70;7.73;;;;;;;;;;4960317;28;20137;-74
2022/03/06 07:51:11;;;;;;;25.98;9.00;;;;;;;;;;4963344;28;20145;-73
2022/03/06 07:53:37;;;;;;;16.50;7.68;;;;;;;;;;4962471;28;20448;-74
2022/03/06 07:56:04;;;;;;;24.98;8.68;;;;;;;;;;4962743;28;20082;-73
2022/03/06 07:58:30;;;;;;;19.38;7.70;;;;;;;;;;4960242;28;20142;-73
2022/03/06 08:00:57;;;;;;;23.08;7.75;;;;;;;;;;4964096;28;20086;-73
2022/03/06 08:03:25;;;;;;;17.88;8.13;;;;;;;;;;4963114;28;20078;-70
2022/03/06 08:05:51;;;;;;;18.30;7.05;;;;;;;;;;4961800;28;20051;-70
2022/03/06 08:08:18;;;;;;;20.35;7.93;;;;;;;;;;4959621;28;20047;-70
2022/03/06 08:10:46;;;;;;;18.85;7.38;;;;;;;;;;4964812;28;20070;-70
2022/03/06 08:13:13;;;;;;;19.33;7.18;;;;;;;;;;4961646;28;20448;-70
2022/03/06 08:15:39;;;;;;;16.73;7.80;;;;;;;;;;4962796;28;20059;-71
2022/03/06 08:18:08;;;;;;;20.13;6.95;;;;;;;;;;4963254;28;20051;-70
2022/03/06 08:20:34;;;;;;;15.73;6.65;;;;;;;;;;4962123;28;20138;-70
2022/03/06 08:23:01;;;;;;;14.65;6.50;;;;;;;;;;4965046;28;20050;-70
2022/03/06 08:25:30;;;;;;;14.48;6.80;;;;;;;;;;4963210;28;20550;-70
2022/03/06 08:27:57;;;;;;;9.43;4.57;;;;;;;;;;4963921;28;20139;-70
2022/03/06 08:30:23;;;;;;;11.75;5.60;;;;;;;;;;4967043;28;20097;-70
2022/03/06 08:32:50;;;;;;;11.43;6.57;;;;;;;;;;4961354;28;20055;-69
2022/03/06 08:35:16;;;;;;;13.03;5.83;;;;;;;;;;4962621;28;20135;-70
2022/03/06 08:37:43;;;;;;;14.82;4.85;;;;;;;;;;4960086;28;20403;-69
2022/03/06 08:40:10;;;;;;;15.77;5.43;;;;;;;;;;4960395;28;20078;-69
2022/03/06 08:42:37;;;;;;;11.68;4.15;;;;;;;;;;4964093;28;20156;-69
2022/03/06 08:45:06;;;;;;;10.18;4.45;;;;;;;;;;4963639;28;20046;-69
2022/03/06 08:47:33;;;;;;;7.55;3.38;;;;;;;;;;4960314;28;20089;-69
2022/03/06 08:49:59;;;;;;;8.15;3.20;;;;;;;;;;4963678;28;20146;-69
2022/03/06 08:52:25;;;;;;;9.20;4.25;;;;;;;;;;4960369;28;20146;-69
2022/03/06 08:54:56;;;;;;;7.40;3.97;;;;;;;;;;4943214;28;20562;-69
2022/03/06 08:57:23;;;;;;;10.30;3.70;;;;;;;;;;4939672;28;20147;-69
2022/03/06 08:59:50;;;;;;;5.95;2.75;;;;;;;;;;4942984;28;20111;-69
2022/03/06 09:02:16;;;;;;;10.02;3.70;;;;;;;;;;4959807;28;20606;-69
2022/03/06 09:04:43;;;;;;;6.68;3.30;;;;;;;;;;4960475;28;20051;-69
2022/03/06 09:07:09;;;;;;;8.82;3.03;;;;;;;;;;4961437;28;20575;-72
2022/03/06 09:09:36;;;;;;;6.75;2.72;;;;;;;;;;4956681;28;20078;-71
2022/03/06 09:12:03;;;;;;;6.97;2.90;;;;;;;;;;4959624;28;20133;-71
2022/03/06 09:14:29;;;;;;;4.85;2.53;;;;;;;;;;4960083;28;20118;-71
2022/03/06 09:16:56;;;;;;;5.13;2.78;;;;;;;;;;4955695;28;20606;-71
2022/03/06 09:19:23;;;;;;;5.22;2.17;;;;;;;;;;4961466;28;20047;-71
2022/03/06 09:21:49;;;;;;;4.45;2.38;;;;;;;;;;4956624;28;20091;-71
2022/03/06 09:24:16;;;;;;;2.53;1.50;;;;;;;;;;4957811;28;20126;-71
2022/03/06 09:26:43;;;;;;;5.45;1.63;;;;;;;;;;4959204;28;20169;-71
2022/03/06 09:29:09;;;;;;;1.33;1.23;;;;;;;;;;4958421;28;20046;-71
2022/03/06 09:31:43;;;;;;;2.35;1.50;;;;;;;;;;4939412;28;20491;-71
2022/03/06 09:34:09;;;;;;;4.30;1.80;;;;;;;;;;4942483;28;20095;-71
2022/03/06 09:36:45;;;;;;;4.35;2.10;;;;;;;;;;4949790;28;20066;-71
2022/03/06 09:39:13;;;;;;;6.30;2.47;;;;;;;;;;4963620;28;20135;-71
2022/03/06 09:41:39;;;;;;;4.50;2.03;;;;;;;;;;4960530;28;20067;-71
2022/03/06 09:44:12;;;;;;;5.18;2.28;;;;;;;;;;4962343;28;20094;-71
2022/03/06 09:46:40;;;;;;;6.82;3.00;;;;;;;;;;4959319;28;20083;-71
2022/03/06 09:49:07;;;;;;;3.93;1.87;;;;;;;;;;4956775;28;20105;-71
2022/03/06 09:51:38;;;;;;;5.63;2.58;;;;;;;;;;4962784;28;20086;-71
2022/03/06 09:54:06;;;;;;;4.93;2.45;;;;;;;;;;4958117;28;20125;-71
2022/03/06 09:56:33;;;;;;;3.05;2.15;;;;;;;;;;4954759;28;20605;-69
2022/03/06 09:58:59;;;;;;;2.53;1.50;;;;;;;;;;4959510;28;20114;-69
2022/03/06 10:01:28;;;;;;;4.40;2.00;;;;;;;;;;4958228;28;20243;-69
2022/03/06 10:03:55;;;;;;;2.47;1.38;;;;;;;;;;4959366;28;20058;-69
2022/03/06 10:06:23;;;;;;;3.33;2.00;;;;;;;;;;4958524;28;21324;-69
2022/03/06 10:09:01;;;;;;;3.22;1.58;;;;;;;;;;4937288;28;20055;-69
2022/03/06 10:11:28;;;;;;;2.97;1.45;;;;;;;;;;4942570;28;20130;-69
2022/03/06 10:13:55;;;;;;;2.28;1.17;;;;;;;;;;4943650;28;20126;-69
2022/03/06 10:16:21;;;;;;;3.22;1.83;;;;;;;;;;4943382;28;20158;-69
2022/03/06 10:18:48;;;;;;;2.88;1.60;;;;;;;;;;4940468;28;20098;-69
2022/03/06 10:21:25;;;;;;;4.18;1.48;;;;;;;;;;4939013;28;20082;-69
2022/03/06 10:23:55;;;;;;;3.10;1.45;;;;;;;;;;4941608;28;20170;-69
2022/03/06 10:26:26;;;;;;;3.67;2.00;;;;;;;;;;4937814;28;20678;-69
2022/03/06 10:29:11;;;;;;;3.85;1.92;;;;;;;;;;4940876;28;20086;-69
2022/03/06 10:31:54;;;;;;;3.42;2.10;;;;;;;;;;4957726;28;20058;-69
2022/03/06 10:34:33;;;;;;;3.05;2.05;;;;;;;;;;4959546;28;20057;-69
2022/03/06 10:37:01;;;;;;;6.75;1.88;;;;;;;;;;4959426;28;20138;-68
2022/03/06 10:39:29;;;;;;;3.22;1.58;;;;;;;;;;4960469;28;20487;-69
2022/03/06 10:41:56;;;;;;;2.35;1.08;;;;;;;;;;4948603;28;20098;-69
2022/03/06 10:44:42;;;;;;;2.08;1.42;;;;;;;;;;4943326;28;20459;-69
2022/03/06 10:47:08;;;;;;;2.70;1.33;;;;;;;;;;4941740;28;20098;-69
2022/03/06 10:49:35;;;;;;;2.97;1.50;;;;;;;;;;4940376;28;20064;-69
2022/03/06 10:52:14;;;;;;;2.75;1.30;;;;;;;;;;4938740;28;20139;-69
2022/03/06 10:54:55;;;;;;;2.42;1.40;;;;;;;;;;4939442;28;20087;-69
2022/03/06 10:57:23;;;;;;;4.25;1.40;;;;;;;;;;4941977;28;20134;-69
2022/03/06 10:59:51;;;;;;;1.92;1.00;;;;;;;;;;4944043;28;20134;-69
2022/03/06 11:02:18;;;;;;;3.08;1.48;;;;;;;;;;4942954;28;20083;-69
2022/03/06 11:04:46;;;;;;;5.25;1.45;;;;;;;;;;4939689;28;20507;-69
2022/03/06 11:07:13;;;;;;;3.15;1.60;;;;;;;;;;4937647;28;20059;-69
2022/03/06 11:09:39;;;;;;;1.70;1.20;;;;;;;;;;4939672;28;20090;-69
2022/03/06 11:12:06;;;;;;;3.05;1.45;;;;;;;;;;4957167;28;20142;-69
2022/03/06 11:14:33;;;;;;;2.60;0.98;;;;;;;;;;4958481;28;20461;-69
2022/03/06 11:17:00;;;;;;;3.05;1.23;;;;;;;;;;4959544;28;20105;-69
2022/03/06 11:19:26;;;;;;;2.90;1.80;;;;;;;;;;4957556;28;20086;-69
2022/03/06 11:22:08;;;;;;;4.65;1.98;;;;;;;;;;4943107;28;20085;-69
2022/03/06 11:24:36;;;;;;;5.10;1.88;;;;;;;;;;4962220;28;20137;-69
2022/03/06 11:27:21;;;;;;;3.83;1.80;;;;;;;;;;4944665;28;20042;-69
2022/03/06 11:29:53;;;;;;;2.55;1.33;;;;;;;;;;4946910;28;20139;-69
2022/03/06 11:32:27;;;;;;;6.00;2.00;;;;;;;;;;4940850;29;20138;-69
2022/03/06 11:35:00;;;;;;;2.85;1.50;;;;;;;;;;4944824;28;20141;-69
2022/03/06 11:37:28;;;;;;;2.30;1.50;;;;;;;;;;4939213;28;20056;-69
2022/03/06 11:39:55;;;;;;;2.65;1.40;;;;;;;;;;4944466;28;20047;-69
2022/03/06 11:42:40;;;;;;;2.07;1.20;;;;;;;;;;4941273;28;20091;-69
2022/03/06 11:45:07;;;;;;;3.83;1.48;;;;;;;;;;4960780;28;20100;-69
2022/03/06 11:47:40;;;;;;;2.03;1.30;;;;;;;;;;4962506;28;20121;-69
2022/03/06 11:50:20;;;;;;;3.08;1.52;;;;;;;;;;4963566;28;20123;-69
2022/03/06 11:52:46;;;;;;;4.55;0.80;;;;;;;;;;4965148;28;20092;-69
2022/03/06 11:55:29;;;;;;;2.42;0.63;;;;;;;;;;4964006;28;20142;-69
2022/03/06 11:57:56;;;;;;;1.08;0.63;;;;;;;;;;4963457;28;20085;-69
2022/03/06 12:00:27;;;;;;;4.90;1.00;;;;;;;;;;4965293;28;20141;-69
2022/03/06 12:02:54;;;;;;;3.55;0.98;;;;;;;;;;4966272;28;20146;-69
2022/03/06 12:05:21;;;;;;;2.13;1.15;;;;;;;;;;4964208;28;20126;-69
2022/03/06 12:07:55;;;;;;;2.45;0.88;;;;;;;;;;4947319;28;20074;-69
2022/03/06 12:10:23;;;;;;;2.45;0.65;;;;;;;;;;4943606;28;20074;-69
2022/03/06 12:12:56;;;;;;;2.70;1.23;;;;;;;;;;4946987;28;20079;-69
2022/03/06 12:15:25;;;;;;;2.92;1.02;;;;;;;;;;4942199;28;20475;-69
2022/03/06 12:17:51;;;;;;;;;;;;;;;;;;4941589;28;20087;-69
2022/03/06 12:20:23;;;;;;;2.47;0.70;;;;;;;;;;4943003;28;19958;-69
2022/03/06 12:22:52;;;;;;;1.92;0.95;;;;;;;;;;4944222;28;20447;-69
2022/03/06 12:25:25;;;;;;;4.93;1.35;;;;;;;;;;4944358;28;20555;-69
2022/03/06 12:28:01;;;;;;;2.90;1.20;;;;;;;;;;4946673;28;20538;-69
2022/03/06 12:30:27;;;;;;;2.97;1.10;;;;;;;;;;4941597;28;20079;-69
2022/03/06 12:32:54;;;;;;;0.98;0.70;;;;;;;;;;4939080;29;20055;-69
2022/03/06 12:35:25;;;;;;;2.22;1.10;;;;;;;;;;4944520;28;20044;-69
2022/03/06 12:37:59;;;;;;;2.00;0.93;;;;;;;;;;4943965;28;20051;-69
2022/03/06 12:40:29;;;;;;;4.75;1.40;;;;;;;;;;4942979;28;20070;-68
2022/03/06 12:42:58;;;;;;;1.50;1.00;;;;;;;;;;4941375;28;20093;-69
2022/03/06 12:45:24;;;;;;;2.60;1.25;;;;;;;;;;4944298;28;20078;-69
2022/03/06 12:47:51;;;;;;;2.77;1.37;;;;;;;;;;4942407;28;20055;-69
2022/03/06 12:50:18;;;;;;;3.88;1.20;;;;;;;;;;4946379;28;20079;-69
2022/03/06 12:52:46;;;;;;;2.28;1.70;;;;;;;;;;4959334;28;20566;-69
2022/03/06 12:55:15;;;;;;;1.98;1.00;;;;;;;;;;4958694;28;20491;-69
2022/03/06 12:57:43;;;;;;;2.50;1.13;;;;;;;;;;4962677;28;20575;-69
2022/03/06 13:00:11;;;;;;;1.80;1.05;;;;;;;;;;4963321;28;20134;-69
2022/03/06 13:02:48;;;;;;;4.90;1.63;;;;;;;;;;4957743;28;20086;-69
2022/03/06 13:05:16;;;;;;;3.10;1.00;;;;;;;;;;4961163;28;20594;-69
2022/03/06 13:07:42;;;;;;;1.48;0.85;;;;;;;;;;4962623;28;20104;-69
2022/03/06 13:10:13;;;;;;;3.72;1.00;;;;;;;;;;4961976;28;20077;-69
2022/03/06 13:12:43;;;;;;;1.13;0.63;;;;;;;;;;4963841;28;20571;-69
2022/03/06 13:15:13;;;;;;;1.35;0.70;;;;;;;;;;4963037;28;20516;-69
2022/03/06 13:17:56;;;;;;;2.03;0.77;;;;;;;;;;4941538;29;20471;-69
2022/03/06 13:20:28;;;;;;;3.97;1.13;;;;;;;;;;4939893;28;20086;-69
2022/03/06 13:23:02;;;;;;;13.25;1.52;;;;;;;;;;4941267;28;20083;-69
2022/03/06 13:25:28;;;;;;;2.40;1.05;;;;;;;;;;4949613;28;20070;-70
2022/03/06 13:27:55;;;;;;;47.58;2.35;;;;;;;;;;4963817;28;20055;-69
2022/03/06 13:30:25;;;;;;;3.88;0.80;;;;;;;;;;4962882;28;20075;-69
2022/03/06 13:32:56;;;;;;;4.40;0.90;;;;;;;;;;4962959;28;20090;-69
2022/03/06 13:35:29;;;;;;;0.93;0.40;;;;;;;;;;4965739;28;20057;-69
2022/03/06 13:38:05;;;;;;;1.45;0.80;;;;;;;;;;4960445;28;20166;-69
2022/03/06 13:40:33;;;;;;;1.90;1.00;;;;;;;;;;4960201;28;20085;-68
2022/03/06 13:43:00;;;;;;;0.60;0.55;;;;;;;;;;4967423;28;20084;-69
2022/03/06 13:45:26;;;;;;;1.88;0.70;;;;;;;;;;4959192;28;20650;-69
2022/03/06 13:47:56;;;;;;;0.95;0.70;;;;;;;;;;4965624;28;20490;-69
2022/03/06 13:50:26;;;;;;;1.42;0.70;;;;;;;;;;4963436;28;20055;-69
2022/03/06 13:52:53;;;;;;;1.23;0.55;;;;;;;;;;4958669;28;20550;-69
2022/03/06 13:55:23;;;;;;;0.98;0.68;;;;;;;;;;4960559;28;20043;-69
2022/03/06 13:58:05;;;;;;;1.75;0.70;;;;;;;;;;4962839;28;20074;-69
2022/03/06 14:00:36;;;;;;;1.33;0.63;;;;;;;;;;4958251;28;20083;-69
2022/03/06 14:03:10;;;;;;;3.80;1.35;;;;;;;;;;4961811;28;20082;-69
2022/03/06 14:05:38;;;;;;;1.35;0.77;;;;;;;;;;4959406;28;20414;-69
2022/03/06 14:08:05;;;;;;;;;;;;;;;;;;4962549;28;20051;-69
2022/03/06 14:10:38;;;;;;;1.10;0.63;;;;;;;;;;4961336;28;19985;-68
2022/03/06 14:13:18;;;;;;;1.63;0.70;;;;;;;;;;4961796;28;20090;-69
2022/03/06 14:15:59;;;;;;;1.75;0.90;;;;;;;;;;4963393;28;20054;-69
2022/03/06 14:18:41;;;;;;;3.25;0.80;;;;;;;;;;4962908;28;20051;-69
2022/03/06 14:21:21;;;;;;;0.90;0.70;;;;;;;;;;4965347;28;20086;-69
2022/03/06 14:23:52;;;;;;;1.42;0.65;;;;;;;;;;4963709;28;20138;-69
2022/03/06 14:26:20;;;;;;;3.40;0.80;;;;;;;;;;4966354;28;20113;-69
2022/03/06 14:28:51;;;;;;;1.40;0.93;;;;;;;;;;4964597;28;20768;-69
2022/03/06 14:31:38;;;;;;;1.38;0.70;;;;;;;;;;4960940;28;20047;-69
2022/03/06 14:34:07;;;;;;;3.70;0.77;;;;;;;;;;4960797;28;20521;-69
2022/03/06 14:36:33;;;;;;;2.45;0.60;;;;;;;;;;4966107;28;20082;-69
2022/03/06 14:39:00;;;;;;;0.52;0.50;;;;;;;;;;4963667;28;20141;-69
2022/03/06 14:41:26;;;;;;;3.42;0.60;;;;;;;;;;4962441;28;20141;-69